Time;durP1;ratioP1;P1;durP2;ratioP2;P2;SDS_P1;SDS_P2;PMS_P1;PMS_P2;Temp;Humidity;BMP_temperature;BMP_pressure;BME280_temperature;BME280_humidity;BME280_pressure;Samples;Min_cycle;Max_cycle;Signal;HPM_P1;HPM_P2
2022/12/09 00:00:31;;;;;;;45.08;8.18;;;;;;;;;;5026999;28;20022;-74
2022/12/09 00:02:57;;;;;;;27.63;7.15;;;;;;;;;;5024908;28;20522;-73
2022/12/09 00:05:23;;;;;;;54.83;8.05;;;;;;;;;;5024915;28;20569;-73
2022/12/09 00:07:48;;;;;;;14.75;5.90;;;;;;;;;;5021094;28;20422;-73
2022/12/09 00:10:13;;;;;;;18.40;6.25;;;;;;;;;;5023048;28;20041;-73
2022/12/09 00:12:39;;;;;;;16.30;6.65;;;;;;;;;;5026241;28;20071;-74
2022/12/09 00:15:05;;;;;;;19.63;6.68;;;;;;;;;;5024079;28;20052;-74
2022/12/09 00:17:30;;;;;;;41.42;7.38;;;;;;;;;;5024142;28;20041;-73
2022/12/09 00:19:55;;;;;;;28.83;7.63;;;;;;;;;;5026405;28;20080;-74
2022/12/09 00:22:20;;;;;;;10.77;5.93;;;;;;;;;;5023840;28;20029;-74
2022/12/09 00:24:46;;;;;;;21.45;6.90;;;;;;;;;;5026447;28;20033;-73
2022/12/09 00:27:11;;;;;;;40.38;8.75;;;;;;;;;;5024535;28;20084;-74
2022/12/09 00:29:36;;;;;;;14.05;6.53;;;;;;;;;;5026066;28;20048;-74
2022/12/09 00:32:02;;;;;;;14.77;6.57;;;;;;;;;;5041444;28;20462;-74
2022/12/09 00:34:28;;;;;;;36.15;8.93;;;;;;;;;;5025958;28;20083;-74
2022/12/09 00:36:53;;;;;;;19.92;7.82;;;;;;;;;;5026558;28;20082;-74
2022/12/09 00:39:18;;;;;;;66.47;8.38;;;;;;;;;;5041260;28;20095;-74
2022/12/09 00:41:44;;;;;;;48.85;7.88;;;;;;;;;;5023085;28;20252;-73
2022/12/09 00:44:10;;;;;;;14.80;6.22;;;;;;;;;;5023483;28;20103;-74
2022/12/09 00:46:35;;;;;;;34.78;7.25;;;;;;;;;;5026199;28;20709;-73
2022/12/09 00:49:02;;;;;;;43.53;6.88;;;;;;;;;;5024524;28;20050;-73
2022/12/09 00:51:27;;;;;;;23.55;7.03;;;;;;;;;;5022963;28;20033;-74
2022/12/09 00:53:54;;;;;;;27.08;7.15;;;;;;;;;;5025029;28;20510;-73
2022/12/09 00:56:25;;;;;;;28.60;6.55;;;;;;;;;;5024621;28;20426;-74
2022/12/09 00:58:50;;;;;;;48.67;7.47;;;;;;;;;;5024253;28;20029;-74
2022/12/09 01:01:16;;;;;;;47.38;6.95;;;;;;;;;;5023837;28;20032;-75
2022/12/09 01:03:41;;;;;;;27.52;6.60;;;;;;;;;;5025311;28;20029;-74
2022/12/09 01:06:12;;;;;;;22.30;7.50;;;;;;;;;;5025446;28;20637;-73
2022/12/09 01:08:38;;;;;;;29.88;7.85;;;;;;;;;;5024457;28;20033;-74
2022/12/09 01:11:21;;;;;;;13.98;6.10;;;;;;;;;;5025896;28;20040;-73
2022/12/09 01:13:47;;;;;;;;;;;;;;;;;;5022587;28;20034;-74
2022/12/09 01:16:15;;;;;;;37.22;7.38;;;;;;;;;;5029285;28;19909;-73
2022/12/09 01:18:41;;;;;;;32.72;7.20;;;;;;;;;;5029921;28;20033;-74
2022/12/09 01:21:06;;;;;;;43.70;7.85;;;;;;;;;;5026159;28;20620;-73
2022/12/09 01:23:32;;;;;;;22.63;8.07;;;;;;;;;;5028307;28;20042;-74
2022/12/09 01:25:57;;;;;;;15.25;7.90;;;;;;;;;;5029677;28;20029;-74
2022/12/09 01:28:22;;;;;;;15.73;6.88;;;;;;;;;;5028794;28;20410;-74
2022/12/09 01:30:48;;;;;;;38.10;6.45;;;;;;;;;;5030156;28;20024;-73
2022/12/09 01:33:13;;;;;;;35.67;6.30;;;;;;;;;;5026672;28;20429;-74
2022/12/09 01:35:40;;;;;;;7.93;3.95;;;;;;;;;;5027592;28;20041;-74
2022/12/09 01:38:05;;;;;;;27.65;4.75;;;;;;;;;;5027541;28;20156;-75
2022/12/09 01:40:31;;;;;;;26.65;9.48;;;;;;;;;;5028528;28;20112;-74
2022/12/09 01:42:56;;;;;;;22.75;9.52;;;;;;;;;;5028310;28;20024;-73
2022/12/09 01:45:22;;;;;;;23.95;9.30;;;;;;;;;;5028674;28;20036;-73
2022/12/09 01:47:50;;;;;;;25.60;9.32;;;;;;;;;;5028647;28;20037;-74
2022/12/09 01:50:15;;;;;;;16.17;7.43;;;;;;;;;;5028765;28;20422;-73
2022/12/09 01:52:41;;;;;;;17.60;7.35;;;;;;;;;;5028982;28;20041;-73
2022/12/09 01:55:07;;;;;;;19.92;7.35;;;;;;;;;;5028780;28;20112;-74
2022/12/09 01:57:33;;;;;;;24.13;9.80;;;;;;;;;;5028629;28;20018;-74
2022/12/09 01:59:58;;;;;;;23.85;8.32;;;;;;;;;;5029385;28;20029;-74
2022/12/09 02:02:27;;;;;;;28.25;9.23;;;;;;;;;;5026808;28;20063;-74
2022/12/09 02:04:53;;;;;;;29.65;9.20;;;;;;;;;;5028854;28;20036;-74
2022/12/09 02:07:19;;;;;;;21.63;9.20;;;;;;;;;;5043943;28;20544;-74
2022/12/09 02:09:45;;;;;;;17.35;8.60;;;;;;;;;;5026904;28;20025;-74
2022/12/09 02:12:20;;;;;;;31.35;8.93;;;;;;;;;;5026957;28;20442;-74
2022/12/09 02:15:11;;;;;;;28.00;9.80;;;;;;;;;;5022512;28;20075;-74
2022/12/09 02:17:47;;;;;;;24.10;9.23;;;;;;;;;;5024960;28;20071;-74
2022/12/09 02:20:24;;;;;;;31.17;9.10;;;;;;;;;;5027922;28;20075;-74
2022/12/09 02:23:04;;;;;;;21.38;8.80;;;;;;;;;;5027603;28;20066;-74
2022/12/09 02:25:38;;;;;;;70.35;11.95;;;;;;;;;;5028077;28;20033;-75
2022/12/09 02:28:33;;;;;;;49.70;9.70;;;;;;;;;;5029017;28;20025;-74
2022/12/09 02:31:26;;;;;;;27.55;9.55;;;;;;;;;;5027738;28;20125;-74
2022/12/09 02:34:09;;;;;;;27.02;7.68;;;;;;;;;;5028923;28;20037;-75
2022/12/09 02:36:44;;;;;;;28.42;10.30;;;;;;;;;;5028120;28;20064;-74
2022/12/09 02:39:09;;;;;;;25.35;9.98;;;;;;;;;;5027766;28;20048;-74
2022/12/09 02:41:38;;;;;;;22.10;8.10;;;;;;;;;;5027429;28;20071;-74
2022/12/09 02:44:11;;;;;;;18.83;7.90;;;;;;;;;;5027965;28;20041;-75
2022/12/09 02:46:37;;;;;;;26.87;8.27;;;;;;;;;;5026600;28;20038;-74
2022/12/09 02:49:03;;;;;;;21.05;8.25;;;;;;;;;;5022565;28;20049;-74
2022/12/09 02:51:32;;;;;;;17.23;8.25;;;;;;;;;;5027405;28;20041;-74
2022/12/09 02:54:03;;;;;;;19.98;9.00;;;;;;;;;;5027895;28;20045;-75
2022/12/09 02:56:30;;;;;;;24.42;9.10;;;;;;;;;;5024724;28;20883;-74
2022/12/09 02:58:56;;;;;;;30.58;9.82;;;;;;;;;;5024683;28;20037;-75
2022/12/09 03:01:27;;;;;;;26.98;9.82;;;;;;;;;;5027510;28;20037;-74
2022/12/09 03:03:53;;;;;;;22.75;7.88;;;;;;;;;;5027480;28;20048;-74
2022/12/09 03:06:19;;;;;;;28.60;9.52;;;;;;;;;;5026941;28;20040;-74
2022/12/09 03:08:54;;;;;;;18.63;9.07;;;;;;;;;;5026497;28;20419;-74
2022/12/09 03:11:21;;;;;;;26.95;9.57;;;;;;;;;;5025710;28;20041;-74
2022/12/09 03:14:02;;;;;;;28.67;11.68;;;;;;;;;;5027334;28;20056;-74
2022/12/09 03:16:36;;;;;;;29.90;10.82;;;;;;;;;;5026257;28;20053;-73
2022/12/09 03:19:12;;;;;;;22.60;8.75;;;;;;;;;;5023202;28;20025;-74
2022/12/09 03:21:43;;;;;;;25.92;11.05;;;;;;;;;;5008522;28;20038;-74
2022/12/09 03:24:10;;;;;;;24.00;8.38;;;;;;;;;;5027397;28;20033;-74
2022/12/09 03:26:37;;;;;;;20.95;7.47;;;;;;;;;;5025798;28;20744;-74
2022/12/09 03:29:07;;;;;;;29.17;9.20;;;;;;;;;;5027457;28;20522;-74
2022/12/09 03:31:35;;;;;;;17.90;8.95;;;;;;;;;;5040944;28;20041;-74
2022/12/09 03:34:03;;;;;;;26.92;9.93;;;;;;;;;;5025137;28;20060;-74
2022/12/09 03:36:35;;;;;;;17.65;7.50;;;;;;;;;;5025519;28;20038;-74
2022/12/09 03:39:02;;;;;;;19.40;8.43;;;;;;;;;;5025216;28;20048;-74
2022/12/09 03:41:30;;;;;;;29.23;9.80;;;;;;;;;;5025457;28;20037;-74
2022/12/09 03:44:25;;;;;;;23.63;8.98;;;;;;;;;;5024594;28;20029;-74
2022/12/09 03:46:50;;;;;;;18.08;7.28;;;;;;;;;;5023725;28;20026;-74
2022/12/09 03:49:17;;;;;;;49.22;10.23;;;;;;;;;;5025090;28;20057;-74
2022/12/09 03:51:52;;;;;;;18.48;8.15;;;;;;;;;;5042237;28;20025;-74
2022/12/09 03:54:23;;;;;;;23.27;8.52;;;;;;;;;;5008067;28;20511;-74
2022/12/09 03:56:52;;;;;;;30.52;8.85;;;;;;;;;;5025235;28;20045;-74
2022/12/09 03:59:18;;;;;;;84.38;10.88;;;;;;;;;;5020833;28;20031;-74
2022/12/09 04:01:44;;;;;;;38.10;9.05;;;;;;;;;;5018168;28;20108;-74
2022/12/09 04:04:11;;;;;;;42.47;9.40;;;;;;;;;;5025833;28;20040;-74
2022/12/09 04:06:36;;;;;;;50.15;8.40;;;;;;;;;;5041423;28;20075;-74
2022/12/09 04:09:02;;;;;;;16.92;7.57;;;;;;;;;;5024459;28;20056;-75
2022/12/09 04:11:29;;;;;;;32.40;7.18;;;;;;;;;;5025597;28;20037;-74
2022/12/09 04:13:54;;;;;;;32.50;8.68;;;;;;;;;;5026009;28;20112;-74
2022/12/09 04:16:20;;;;;;;30.30;9.80;;;;;;;;;;5025087;28;20112;-74
2022/12/09 04:18:45;;;;;;;27.48;10.05;;;;;;;;;;5040617;28;20438;-74
2022/12/09 04:21:12;;;;;;;32.28;11.25;;;;;;;;;;5019514;28;20038;-74
2022/12/09 04:23:37;;;;;;;21.85;8.50;;;;;;;;;;5024520;28;20053;-74
2022/12/09 04:26:03;;;;;;;27.25;8.52;;;;;;;;;;5024338;28;20033;-74
2022/12/09 04:28:29;;;;;;;15.27;7.68;;;;;;;;;;5025665;28;20123;-74
2022/12/09 04:30:54;;;;;;;17.30;8.80;;;;;;;;;;5025766;28;20475;-74
2022/12/09 04:33:19;;;;;;;21.23;9.15;;;;;;;;;;5026410;28;20038;-75
2022/12/09 04:35:44;;;;;;;35.13;8.77;;;;;;;;;;5025181;28;20044;-74
2022/12/09 04:38:10;;;;;;;23.80;8.48;;;;;;;;;;5026268;28;20044;-74
2022/12/09 04:40:36;;;;;;;43.63;7.97;;;;;;;;;;5039145;28;20092;-74
2022/12/09 04:43:02;;;;;;;63.53;8.48;;;;;;;;;;5024637;28;20426;-74
2022/12/09 04:45:27;;;;;;;54.40;9.15;;;;;;;;;;5024129;28;20562;-74
2022/12/09 04:47:52;;;;;;;44.30;8.27;;;;;;;;;;5025759;28;20093;-74
2022/12/09 04:50:18;;;;;;;37.83;7.18;;;;;;;;;;5022261;28;20136;-74
2022/12/09 04:52:43;;;;;;;37.10;7.55;;;;;;;;;;5027824;28;20045;-74
2022/12/09 04:55:11;;;;;;;52.55;10.38;;;;;;;;;;5030055;28;20053;-74
2022/12/09 04:57:37;;;;;;;43.92;9.95;;;;;;;;;;5028477;28;20036;-74
2022/12/09 05:00:04;;;;;;;58.08;9.07;;;;;;;;;;5029545;28;20037;-74
2022/12/09 05:02:29;;;;;;;28.55;10.73;;;;;;;;;;5028419;28;20033;-74
2022/12/09 05:04:55;;;;;;;29.23;9.68;;;;;;;;;;5029908;28;20091;-74
2022/12/09 05:07:22;;;;;;;22.05;9.02;;;;;;;;;;5016492;28;20022;-74
2022/12/09 05:09:48;;;;;;;72.93;10.32;;;;;;;;;;5009123;28;20026;-75
2022/12/09 05:12:13;;;;;;;31.35;9.77;;;;;;;;;;5009784;28;20034;-74
2022/12/09 05:14:38;;;;;;;36.25;7.45;;;;;;;;;;5010297;28;20038;-74
2022/12/09 05:17:05;;;;;;;16.73;7.63;;;;;;;;;;5009834;28;20030;-74
2022/12/09 05:19:31;;;;;;;33.30;8.52;;;;;;;;;;5012215;28;20040;-75
2022/12/09 05:21:56;;;;;;;23.58;9.45;;;;;;;;;;5030539;28;20017;-74
2022/12/09 05:24:21;;;;;;;20.40;8.40;;;;;;;;;;5027893;28;20124;-74
2022/12/09 05:26:47;;;;;;;22.17;9.07;;;;;;;;;;5030034;28;20038;-74
2022/12/09 05:29:12;;;;;;;35.83;10.15;;;;;;;;;;5026035;28;20431;-74
2022/12/09 05:31:37;;;;;;;25.73;9.68;;;;;;;;;;5029313;28;20495;-74
2022/12/09 05:34:03;;;;;;;22.15;9.07;;;;;;;;;;5029301;28;20064;-74
2022/12/09 05:36:28;;;;;;;39.85;9.40;;;;;;;;;;5029214;28;20091;-75
2022/12/09 05:38:54;;;;;;;20.63;7.72;;;;;;;;;;5029280;28;20117;-74
2022/12/09 05:41:21;;;;;;;22.73;9.45;;;;;;;;;;5029271;28;20046;-75
2022/12/09 05:43:47;;;;;;;36.45;11.35;;;;;;;;;;5029404;28;20037;-74
2022/12/09 05:46:13;;;;;;;57.08;11.30;;;;;;;;;;5027083;28;20380;-74
2022/12/09 05:48:39;;;;;;;76.50;11.88;;;;;;;;;;5028746;28;20053;-74
2022/12/09 05:51:07;;;;;;;98.45;11.30;;;;;;;;;;5029125;28;20040;-74
2022/12/09 05:53:33;;;;;;;24.63;10.18;;;;;;;;;;5027778;28;20552;-74
2022/12/09 05:55:58;;;;;;;76.78;10.60;;;;;;;;;;5027209;28;20084;-74
2022/12/09 05:58:24;;;;;;;129.93;12.23;;;;;;;;;;5028633;28;20048;-74
2022/12/09 06:00:49;;;;;;;50.75;10.52;;;;;;;;;;5029558;28;20858;-74
2022/12/09 06:03:15;;;;;;;76.10;10.32;;;;;;;;;;5028681;28;20534;-74
2022/12/09 06:05:40;;;;;;;80.25;11.02;;;;;;;;;;5028593;28;20072;-74
2022/12/09 06:08:06;;;;;;;37.03;10.02;;;;;;;;;;5028950;28;20079;-74
2022/12/09 06:10:31;;;;;;;25.00;7.90;;;;;;;;;;5026755;28;20495;-74
2022/12/09 06:12:57;;;;;;;28.60;8.10;;;;;;;;;;5024755;28;20080;-74
2022/12/09 06:15:23;;;;;;;40.65;7.57;;;;;;;;;;5028608;28;20415;-74
2022/12/09 06:17:49;;;;;;;32.42;8.80;;;;;;;;;;5028341;28;20052;-74
2022/12/09 06:20:15;;;;;;;31.23;8.75;;;;;;;;;;5028211;28;20766;-74
2022/12/09 06:22:40;;;;;;;21.30;8.25;;;;;;;;;;5028160;28;20041;-75
2022/12/09 06:25:06;;;;;;;56.33;10.05;;;;;;;;;;5029287;28;20029;-74
2022/12/09 06:27:31;;;;;;;51.95;9.77;;;;;;;;;;5027211;28;20094;-74
2022/12/09 06:29:57;;;;;;;21.35;8.65;;;;;;;;;;5028445;28;20034;-74
2022/12/09 06:32:22;;;;;;;27.65;10.02;;;;;;;;;;5027877;28;20046;-75
2022/12/09 06:34:47;;;;;;;45.03;9.07;;;;;;;;;;5028485;28;20065;-74
2022/12/09 06:37:16;;;;;;;40.92;10.38;;;;;;;;;;5028042;28;20029;-74
2022/12/09 06:39:41;;;;;;;44.42;10.38;;;;;;;;;;5027252;28;20032;-74
2022/12/09 06:42:07;;;;;;;52.95;8.38;;;;;;;;;;5020616;28;20033;-74
2022/12/09 06:44:32;;;;;;;51.00;9.80;;;;;;;;;;5027909;28;20037;-74
2022/12/09 06:46:58;;;;;;;35.15;6.05;;;;;;;;;;5025483;28;20040;-74
2022/12/09 06:49:23;;;;;;;22.95;9.52;;;;;;;;;;5026132;28;20047;-74
2022/12/09 06:51:48;;;;;;;34.65;8.52;;;;;;;;;;5028179;28;20034;-74
2022/12/09 06:54:14;;;;;;;31.45;8.60;;;;;;;;;;5027329;28;20041;-74
2022/12/09 06:56:39;;;;;;;24.25;8.57;;;;;;;;;;5026922;28;20662;-74
2022/12/09 06:59:06;;;;;;;51.90;6.85;;;;;;;;;;5025979;28;20033;-74
2022/12/09 07:01:31;;;;;;;29.38;8.65;;;;;;;;;;5026296;28;20030;-74
2022/12/09 07:03:57;;;;;;;19.52;8.70;;;;;;;;;;5028036;28;20030;-73
2022/12/09 07:06:26;;;;;;;24.58;9.02;;;;;;;;;;5027451;28;20029;-74
2022/12/09 07:08:52;;;;;;;28.27;9.32;;;;;;;;;;5028009;28;20491;-74
2022/12/09 07:11:17;;;;;;;26.58;8.20;;;;;;;;;;5026139;28;20060;-74
2022/12/09 07:13:42;;;;;;;27.38;9.95;;;;;;;;;;5026115;28;20033;-74
2022/12/09 07:16:08;;;;;;;44.33;10.80;;;;;;;;;;5027440;28;20392;-74
2022/12/09 07:18:33;;;;;;;47.45;8.32;;;;;;;;;;5026895;28;20116;-74
2022/12/09 07:21:08;;;;;;;21.52;8.52;;;;;;;;;;5027007;28;20044;-74
2022/12/09 07:23:34;;;;;;;46.03;10.80;;;;;;;;;;5026179;28;20043;-74
2022/12/09 07:26:01;;;;;;;31.30;9.00;;;;;;;;;;5027111;28;20029;-74
2022/12/09 07:28:26;;;;;;;36.10;7.88;;;;;;;;;;5027126;28;20036;-74
2022/12/09 07:30:52;;;;;;;53.05;10.77;;;;;;;;;;5025696;28;20021;-74
2022/12/09 07:33:17;;;;;;;31.42;10.00;;;;;;;;;;5026152;28;20514;-75
2022/12/09 07:35:42;;;;;;;112.55;13.63;;;;;;;;;;5020027;28;20040;-74
2022/12/09 07:38:08;;;;;;;123.75;12.95;;;;;;;;;;5025245;28;20033;-74
2022/12/09 07:40:33;;;;;;;89.00;12.52;;;;;;;;;;5025651;28;20029;-74
2022/12/09 07:42:58;;;;;;;166.52;13.05;;;;;;;;;;5024082;28;20059;-75
2022/12/09 07:45:24;;;;;;;95.57;10.68;;;;;;;;;;5024324;28;20675;-74
2022/12/09 07:47:49;;;;;;;230.10;14.02;;;;;;;;;;5027193;28;20466;-75
2022/12/09 07:50:14;;;;;;;111.30;11.32;;;;;;;;;;5024702;28;20468;-75
2022/12/09 07:52:40;;;;;;;152.40;12.45;;;;;;;;;;5021321;28;20040;-75
2022/12/09 07:55:06;;;;;;;76.93;9.27;;;;;;;;;;5026253;28;20036;-73
2022/12/09 07:57:33;;;;;;;72.93;10.55;;;;;;;;;;5026072;28;20571;-75
2022/12/09 07:59:58;;;;;;;126.95;10.73;;;;;;;;;;5025214;28;20038;-75
2022/12/09 08:02:23;;;;;;;188.40;12.50;;;;;;;;;;5014515;28;20030;-75
2022/12/09 08:04:49;;;;;;;153.77;11.18;;;;;;;;;;5019135;28;20064;-75
2022/12/09 08:07:14;;;;;;;105.53;12.75;;;;;;;;;;5021482;28;20029;-75
2022/12/09 08:09:39;;;;;;;162.43;11.07;;;;;;;;;;5025120;28;20017;-75
2022/12/09 08:12:05;;;;;;;89.82;9.90;;;;;;;;;;5026021;28;20033;-75
2022/12/09 08:14:30;;;;;;;44.75;8.95;;;;;;;;;;5026316;28;20384;-75
2022/12/09 08:16:56;;;;;;;65.63;10.70;;;;;;;;;;5026182;28;20826;-74
2022/12/09 08:19:21;;;;;;;79.45;10.88;;;;;;;;;;5026122;28;20051;-74
2022/12/09 08:21:46;;;;;;;70.55;11.25;;;;;;;;;;5026663;28;20021;-74
2022/12/09 08:24:12;;;;;;;59.53;9.70;;;;;;;;;;5024968;28;20117;-75
2022/12/09 08:26:38;;;;;;;102.90;10.20;;;;;;;;;;5025711;28;20049;-74
2022/12/09 08:29:11;;;;;;;41.83;8.93;;;;;;;;;;5021887;28;20034;-74
2022/12/09 08:31:38;;;;;;;95.22;12.82;;;;;;;;;;5004261;28;20034;-74
2022/12/09 08:34:04;;;;;;;24.73;9.20;;;;;;;;;;5006634;28;20026;-75
2022/12/09 08:36:29;;;;;;;40.28;8.30;;;;;;;;;;5005584;28;20381;-75
2022/12/09 08:38:57;;;;;;;70.15;9.88;;;;;;;;;;5007402;28;20039;-74
2022/12/09 08:41:33;;;;;;;46.53;7.10;;;;;;;;;;5022353;28;20056;-74
2022/12/09 08:44:20;;;;;;;54.45;8.73;;;;;;;;;;5018963;28;20033;-75
2022/12/09 08:46:49;;;;;;;53.00;9.75;;;;;;;;;;5022440;28;20302;-75
2022/12/09 08:49:20;;;;;;;15.57;8.07;;;;;;;;;;5022033;28;20045;-75
2022/12/09 08:51:47;;;;;;;61.75;9.32;;;;;;;;;;5017831;28;20040;-74
2022/12/09 08:54:13;;;;;;;44.25;10.25;;;;;;;;;;5014426;28;20470;-75
2022/12/09 08:56:38;;;;;;;52.63;9.98;;;;;;;;;;5025095;28;20026;-75
2022/12/09 08:59:04;;;;;;;44.67;10.13;;;;;;;;;;5023969;28;20036;-75
2022/12/09 09:01:33;;;;;;;21.00;9.27;;;;;;;;;;5024894;28;20037;-75
2022/12/09 09:04:05;;;;;;;34.85;9.05;;;;;;;;;;5020280;28;22572;-75
2022/12/09 09:06:31;;;;;;;64.93;11.57;;;;;;;;;;5022205;28;20692;-75
2022/12/09 09:08:56;;;;;;;38.83;8.70;;;;;;;;;;5023478;28;20041;-75
2022/12/09 09:11:23;;;;;;;102.47;10.52;;;;;;;;;;5024243;28;20112;-75
2022/12/09 09:13:52;;;;;;;26.45;7.07;;;;;;;;;;5025020;28;20533;-74
2022/12/09 09:16:22;;;;;;;61.88;10.55;;;;;;;;;;5025735;28;20117;-75
2022/12/09 09:18:49;;;;;;;54.53;8.05;;;;;;;;;;5024176;28;20025;-75
2022/12/09 09:21:18;;;;;;;36.63;10.00;;;;;;;;;;5012298;28;20048;-77
2022/12/09 09:23:44;;;;;;;50.28;10.25;;;;;;;;;;5015484;28;20049;-74
2022/12/09 09:26:15;;;;;;;41.50;8.35;;;;;;;;;;5024366;28;20056;-75
2022/12/09 09:28:41;;;;;;;24.75;9.50;;;;;;;;;;5018553;28;20033;-75
2022/12/09 09:31:09;;;;;;;71.10;10.63;;;;;;;;;;5016845;28;20029;-74
2022/12/09 09:33:34;;;;;;;48.30;8.55;;;;;;;;;;5020604;28;20067;-75
2022/12/09 09:36:02;;;;;;;27.67;10.02;;;;;;;;;;5008768;28;20034;-75
2022/12/09 09:38:28;;;;;;;34.90;10.88;;;;;;;;;;5019799;28;20084;-75
2022/12/09 09:40:54;;;;;;;44.45;11.55;;;;;;;;;;5025522;28;20041;-75
2022/12/09 09:43:24;;;;;;;46.35;11.00;;;;;;;;;;5026530;28;20191;-75
2022/12/09 09:45:51;;;;;;;38.53;10.18;;;;;;;;;;5026742;28;20026;-74
2022/12/09 09:48:20;;;;;;;29.02;9.40;;;;;;;;;;5026154;28;20514;-74
2022/12/09 09:50:55;;;;;;;49.05;11.98;;;;;;;;;;5026590;28;20418;-74
2022/12/09 09:53:25;;;;;;;58.67;10.32;;;;;;;;;;5027838;28;20056;-74
2022/12/09 09:56:17;;;;;;;47.00;10.10;;;;;;;;;;5027945;28;20034;-75
2022/12/09 09:59:10;;;;;;;26.85;9.13;;;;;;;;;;5027031;28;20036;-75
2022/12/09 10:01:36;;;;;;;30.73;8.35;;;;;;;;;;5026949;28;20022;-74
2022/12/09 10:04:32;;;;;;;26.60;10.02;;;;;;;;;;5025274;28;20037;-75
2022/12/09 10:07:01;;;;;;;39.38;8.20;;;;;;;;;;5020780;28;20038;-75
2022/12/09 10:09:58;;;;;;;54.40;8.35;;;;;;;;;;5026247;28;20875;-75
2022/12/09 10:12:53;;;;;;;29.33;9.02;;;;;;;;;;4999913;28;20045;-75
2022/12/09 10:15:25;;;;;;;21.45;7.90;;;;;;;;;;5016417;28;20637;-75
2022/12/09 10:18:02;;;;;;;16.15;7.82;;;;;;;;;;5014152;28;21008;-74
2022/12/09 10:20:29;;;;;;;50.45;9.45;;;;;;;;;;5016418;28;20080;-77
2022/12/09 10:22:58;;;;;;;67.82;7.10;;;;;;;;;;5018755;28;20048;-76
2022/12/09 10:25:33;;;;;;;33.45;8.55;;;;;;;;;;5012856;28;20034;-76
2022/12/09 10:28:21;;;;;;;36.78;11.23;;;;;;;;;;5017910;28;20025;-77
2022/12/09 10:30:48;;;;;;;51.55;11.05;;;;;;;;;;5032360;28;20084;-77
2022/12/09 10:33:17;;;;;;;47.20;10.40;;;;;;;;;;5024645;28;20069;-77
2022/12/09 10:35:43;;;;;;;34.45;8.30;;;;;;;;;;5027422;28;20102;-77
2022/12/09 10:38:15;;;;;;;39.15;8.10;;;;;;;;;;5026637;28;20041;-77
2022/12/09 10:40:48;;;;;;;44.00;9.82;;;;;;;;;;5025858;28;20029;-77
2022/12/09 10:43:35;;;;;;;19.65;8.40;;;;;;;;;;5025409;28;20024;-77
2022/12/09 10:46:22;;;;;;;29.02;10.32;;;;;;;;;;5026338;28;20125;-77
2022/12/09 10:48:47;;;;;;;57.80;8.95;;;;;;;;;;5027024;28;20049;-76
2022/12/09 10:51:15;;;;;;;35.03;9.75;;;;;;;;;;5026997;28;20034;-77
2022/12/09 10:53:50;;;;;;;36.88;9.57;;;;;;;;;;5028016;28;20090;-77
2022/12/09 10:56:26;;;;;;;22.58;8.85;;;;;;;;;;5042618;28;20041;-77
2022/12/09 10:59:22;;;;;;;21.85;8.65;;;;;;;;;;5025875;28;20025;-77
2022/12/09 11:01:58;;;;;;;40.38;10.57;;;;;;;;;;5029819;28;20571;-77
2022/12/09 11:04:31;;;;;;;43.17;10.00;;;;;;;;;;5042666;28;20029;-77
2022/12/09 11:07:11;;;;;;;20.55;9.73;;;;;;;;;;5028142;28;20464;-77
2022/12/09 11:09:39;;;;;;;32.42;9.00;;;;;;;;;;5027016;28;20076;-77
2022/12/09 11:12:13;;;;;;;25.85;9.20;;;;;;;;;;5027616;28;20620;-77
2022/12/09 11:14:47;;;;;;;42.85;9.18;;;;;;;;;;5023271;28;20442;-77
2022/12/09 11:17:15;;;;;;;31.30;10.18;;;;;;;;;;5004288;28;20548;-77
2022/12/09 11:19:41;;;;;;;33.22;9.75;;;;;;;;;;5020516;28;20045;-79
2022/12/09 11:22:27;;;;;;;34.65;10.30;;;;;;;;;;5023429;28;20022;-78
2022/12/09 11:24:55;;;;;;;27.13;9.68;;;;;;;;;;5015719;28;20036;-79
2022/12/09 11:27:29;;;;;;;26.10;9.05;;;;;;;;;;5012479;28;20048;-78
2022/12/09 11:30:05;;;;;;;34.38;10.65;;;;;;;;;;5020797;28;20044;-79
2022/12/09 11:32:31;;;;;;;34.92;9.82;;;;;;;;;;5018280;28;20454;-79
2022/12/09 11:34:57;;;;;;;25.90;10.30;;;;;;;;;;5021937;28;20753;-79
2022/12/09 11:37:22;;;;;;;35.78;10.45;;;;;;;;;;5020023;28;20033;-78
2022/12/09 11:39:49;;;;;;;28.00;7.80;;;;;;;;;;5024178;28;20064;-79
2022/12/09 11:42:18;;;;;;;29.90;9.32;;;;;;;;;;5025363;28;20071;-79
2022/12/09 11:44:49;;;;;;;35.45;9.50;;;;;;;;;;5025109;28;20032;-77
2022/12/09 11:47:27;;;;;;;48.50;10.90;;;;;;;;;;5038772;28;20033;-79
2022/12/09 11:49:59;;;;;;;34.10;9.45;;;;;;;;;;5024244;28;20037;-79
2022/12/09 11:52:28;;;;;;;23.38;8.80;;;;;;;;;;5024899;28;20116;-79
2022/12/09 11:55:14;;;;;;;30.23;10.25;;;;;;;;;;5025648;28;20048;-79
2022/12/09 11:57:44;;;;;;;21.70;8.13;;;;;;;;;;5025434;28;20204;-78
2022/12/09 12:00:23;;;;;;;23.38;8.70;;;;;;;;;;5021726;28;20112;-79
2022/12/09 12:03:05;;;;;;;25.83;8.35;;;;;;;;;;5024712;28;20056;-79
2022/12/09 12:05:36;;;;;;;27.35;8.38;;;;;;;;;;5025835;28;20549;-79
2022/12/09 12:08:15;;;;;;;26.63;8.60;;;;;;;;;;5022054;28;20534;-79
2022/12/09 12:11:07;;;;;;;35.90;10.52;;;;;;;;;;5026152;28;20037;-79
2022/12/09 12:13:51;;;;;;;21.65;7.95;;;;;;;;;;5015432;28;20045;-79
2022/12/09 12:16:37;;;;;;;21.25;8.98;;;;;;;;;;5026020;28;20064;-77
2022/12/09 12:19:12;;;;;;;22.48;8.05;;;;;;;;;;5021109;28;20052;-78
2022/12/09 12:22:08;;;;;;;17.50;7.97;;;;;;;;;;5040084;28;20041;-79
2022/12/09 12:25:12;;;;;;;22.35;7.45;;;;;;;;;;5025217;28;20037;-79
2022/12/09 12:27:50;;;;;;;21.23;7.88;;;;;;;;;;5026079;28;20395;-79
2022/12/09 12:30:19;;;;;;;22.50;8.60;;;;;;;;;;5023989;28;20080;-79
2022/12/09 12:33:05;;;;;;;18.35;6.30;;;;;;;;;;5007274;28;20042;-78
2022/12/09 12:35:55;;;;;;;23.15;7.55;;;;;;;;;;5020527;28;20048;-80
2022/12/09 12:38:23;;;;;;;24.42;7.75;;;;;;;;;;5023785;28;20550;-79
2022/12/09 12:41:10;;;;;;;24.23;7.15;;;;;;;;;;5023189;28;20037;-80
2022/12/09 12:46:53;;;;;;;21.85;7.22;;;;;;;;;;5025332;28;20068;-79
2022/12/09 12:49:33;;;;;;;22.05;7.95;;;;;;;;;;5024975;28;20069;-79
2022/12/09 12:52:19;;;;;;;23.08;7.50;;;;;;;;;;5024604;28;20044;-79
2022/12/09 12:55:09;;;;;;;18.80;7.15;;;;;;;;;;5024323;28;20049;-80
2022/12/09 12:58:09;;;;;;;18.50;6.35;;;;;;;;;;5011221;28;20258;-79
2022/12/09 13:00:49;;;;;;;28.92;7.43;;;;;;;;;;5022714;28;20537;-79
2022/12/09 13:03:26;;;;;;;22.65;8.35;;;;;;;;;;5023542;28;20042;-80
2022/12/09 13:05:55;;;;;;;23.27;7.97;;;;;;;;;;5039400;28;20039;-80
2022/12/09 13:08:34;;;;;;;18.05;6.53;;;;;;;;;;5025692;28;20037;-80
2022/12/09 13:11:06;;;;;;;21.00;7.57;;;;;;;;;;5025477;28;20025;-80
2022/12/09 13:13:53;;;;;;;13.95;5.03;;;;;;;;;;5028502;28;20029;-81
2022/12/09 13:16:38;;;;;;;21.98;7.57;;;;;;;;;;5027378;28;20025;-80
2022/12/09 13:19:32;;;;;;;22.45;7.20;;;;;;;;;;5028258;28;20030;-80
2022/12/09 13:21:57;;;;;;;;;;;;;;;;;;5028501;28;20033;-79
2022/12/09 13:24:46;;;;;;;20.80;6.35;;;;;;;;;;5027586;28;20431;-79
2022/12/09 13:27:23;;;;;;;25.52;8.38;;;;;;;;;;5027412;28;20037;-80
2022/12/09 13:29:56;;;;;;;14.70;6.13;;;;;;;;;;5027823;28;20080;-79
2022/12/09 13:32:39;;;;;;;27.85;9.15;;;;;;;;;;5028617;28;20074;-80
2022/12/09 13:35:30;;;;;;;17.70;6.82;;;;;;;;;;5028783;28;20056;-80
2022/12/09 13:37:57;;;;;;;21.02;7.03;;;;;;;;;;5028874;28;20099;-80
2022/12/09 13:40:30;;;;;;;18.40;7.03;;;;;;;;;;5028595;28;20577;-80
2022/12/09 13:43:08;;;;;;;;;;;;;;;;;;5029705;28;20442;-79
2022/12/09 13:45:35;;;;;;;14.00;6.13;;;;;;;;;;5026257;28;19916;-79
2022/12/09 13:48:05;;;;;;;25.95;8.65;;;;;;;;;;5025605;28;20041;-79
2022/12/09 13:50:39;;;;;;;22.52;7.07;;;;;;;;;;5028268;28;20132;-80
2022/12/09 13:53:10;;;;;;;;;;;;;;;;;;5028718;28;20122;-80
2022/12/09 13:55:39;;;;;;;13.68;6.15;;;;;;;;;;5027911;28;19913;-80
2022/12/09 13:58:35;;;;;;;19.58;6.75;;;;;;;;;;5027942;28;20203;-80
2022/12/09 14:01:09;;;;;;;17.98;7.70;;;;;;;;;;5028489;28;20136;-79
2022/12/09 14:04:05;;;;;;;18.40;7.13;;;;;;;;;;5026379;28;20046;-80
2022/12/09 14:06:43;;;;;;;15.02;5.18;;;;;;;;;;5009967;28;20049;-79
2022/12/09 14:09:27;;;;;;;24.40;7.10;;;;;;;;;;5025999;28;20055;-79
2022/12/09 14:11:59;;;;;;;16.48;5.10;;;;;;;;;;5026871;28;20068;-79
2022/12/09 14:14:24;;;;;;;22.20;8.25;;;;;;;;;;5026983;28;20037;-79
2022/12/09 14:16:50;;;;;;;21.67;7.50;;;;;;;;;;5020774;28;20037;-80
2022/12/09 14:19:30;;;;;;;19.83;7.20;;;;;;;;;;5011736;28;20030;-81
2022/12/09 14:22:18;;;;;;;16.75;6.65;;;;;;;;;;5038349;28;20127;-81
2022/12/09 14:24:50;;;;;;;20.98;7.13;;;;;;;;;;5015295;28;20045;-82
2022/12/09 14:27:19;;;;;;;18.42;7.65;;;;;;;;;;5007483;28;20038;-79
2022/12/09 14:29:50;;;;;;;21.38;7.15;;;;;;;;;;5012591;28;20048;-79
2022/12/09 14:32:28;;;;;;;13.23;5.43;;;;;;;;;;5024440;28;20041;-78
2022/12/09 14:35:06;;;;;;;24.25;8.07;;;;;;;;;;5001251;28;20531;-80
2022/12/09 14:37:52;;;;;;;17.10;6.90;;;;;;;;;;5020029;28;20049;-81
2022/12/09 14:40:33;;;;;;;25.40;9.02;;;;;;;;;;5030566;28;20033;-79
2022/12/09 14:43:14;;;;;;;15.65;6.97;;;;;;;;;;5026406;28;20028;-80
2022/12/09 14:45:55;;;;;;;17.10;7.35;;;;;;;;;;5010658;28;20073;-80
2022/12/09 14:48:23;;;;;;;26.40;7.60;;;;;;;;;;5014623;28;20705;-79
2022/12/09 14:51:17;;;;;;;18.67;6.95;;;;;;;;;;5017889;28;20045;-78